createdAt,value
2019-04-25T00:01:11.594Z,11.30
2019-04-25T00:03:42.554Z,12.10
2019-04-25T00:06:13.397Z,11.07
2019-04-25T00:08:44.043Z,11.83
2019-04-25T00:11:13.748Z,10.97
2019-04-25T00:13:44.068Z,10.57
2019-04-25T00:16:14.579Z,11.53
2019-04-25T00:18:44.260Z,11.70
2019-04-25T00:21:21.988Z,10.97
2019-04-25T00:23:56.254Z,11.70
2019-04-25T00:26:44.019Z,11.67
2019-04-25T00:29:13.263Z,12.20
2019-04-25T00:31:45.680Z,11.47
2019-04-25T00:34:15.420Z,10.90
2019-04-25T00:36:45.618Z,13.23
2019-04-25T00:39:15.216Z,12.77
2019-04-25T00:41:46.140Z,13.13
2019-04-25T00:44:15.873Z,12.57
2019-04-25T00:46:48.598Z,12.33
2019-04-25T00:49:16.567Z,12.23
2019-04-25T00:51:46.175Z,12.63
2019-04-25T00:54:15.595Z,12.67
2019-04-25T00:56:47.767Z,12.80
2019-04-25T00:59:25.131Z,12.30
2019-04-25T01:02:07.543Z,13.63
2019-04-25T01:04:36.177Z,12.27
2019-04-25T01:07:05.716Z,11.13
2019-04-25T01:09:35.177Z,12.63
2019-04-25T01:12:04.714Z,13.30
2019-04-25T01:14:34.324Z,12.43
2019-04-25T01:17:03.897Z,12.20
2019-04-25T01:19:34.462Z,12.60
2019-04-25T01:22:04.277Z,12.63
2019-04-25T01:24:34.049Z,12.00
2019-04-25T01:27:05.329Z,11.83
2019-04-25T01:29:34.893Z,12.30
2019-04-25T01:32:06.540Z,12.70
2019-04-25T01:35:00.084Z,11.97
2019-04-25T01:37:43.716Z,12.17
2019-04-25T01:40:38.305Z,12.50
2019-04-25T01:43:26.302Z,11.50
2019-04-25T01:45:56.838Z,11.33
2019-04-25T01:48:26.342Z,12.70
2019-04-25T01:50:56.517Z,11.80
2019-04-25T01:53:26.102Z,12.47
2019-04-25T01:56:01.564Z,12.13
2019-04-25T01:58:26.913Z,12.23
2019-04-25T02:00:57.324Z,12.20
2019-04-25T02:03:27.369Z,12.13
2019-04-25T02:05:57.304Z,12.10
2019-04-25T02:08:26.901Z,12.17
2019-04-25T02:11:07.406Z,12.00
2019-04-25T02:13:37.027Z,12.97
2019-04-25T02:16:08.159Z,12.40
2019-04-25T02:18:37.751Z,11.20
2019-04-25T02:21:07.591Z,12.03
2019-04-25T02:23:37.071Z,11.23
2019-04-25T02:26:15.663Z,12.77
2019-04-25T02:28:37.893Z,11.40
2019-04-25T02:31:08.873Z,12.23
2019-04-25T02:33:38.584Z,13.20
2019-04-25T02:36:08.878Z,12.50
2019-04-25T02:38:38.484Z,13.40
2019-04-25T02:41:09.059Z,13.97
2019-04-25T02:43:38.659Z,12.70
2019-04-25T02:46:37.107Z,13.53
2019-04-25T02:49:40.146Z,12.60
2019-04-25T02:52:31.513Z,11.70
2019-04-25T02:55:02.119Z,12.63
2019-04-25T02:57:34.415Z,11.73
2019-04-25T03:00:06.741Z,12.87
2019-04-25T03:02:36.770Z,11.57
2019-04-25T03:05:09.574Z,11.13
2019-04-25T03:07:37.362Z,12.73
2019-04-25T03:10:09.813Z,13.30
2019-04-25T03:12:39.491Z,12.00
2019-04-25T03:15:10.293Z,12.40
2019-04-25T03:17:40.122Z,12.33
2019-04-25T03:20:24.417Z,12.03
2019-04-25T03:22:54.803Z,12.13
2019-04-25T03:25:24.940Z,12.80
2019-04-25T03:27:54.513Z,12.90
2019-04-25T03:30:25.577Z,12.17
2019-04-25T03:32:56.192Z,13.17
2019-04-25T03:35:25.850Z,11.83
2019-04-25T03:37:55.348Z,12.67
2019-04-25T03:40:24.817Z,11.87
2019-04-25T03:42:54.319Z,13.17
2019-04-25T03:45:23.813Z,12.03
2019-04-25T03:47:53.319Z,13.73
2019-04-25T03:50:23.269Z,13.70
2019-04-25T03:52:54.035Z,15.13
2019-04-25T03:55:24.128Z,14.83
2019-04-25T03:57:53.988Z,12.93
2019-04-25T04:00:24.099Z,13.20
2019-04-25T04:02:55.382Z,13.67
2019-04-25T04:05:24.953Z,14.13
2019-04-25T04:07:54.451Z,13.37
2019-04-25T04:10:23.933Z,13.47
2019-04-25T04:12:54.256Z,13.87
2019-04-25T04:15:25.069Z,14.13
2019-04-25T04:18:01.679Z,14.03
2019-04-25T04:20:41.472Z,14.70
2019-04-25T04:23:33.223Z,14.10
2019-04-25T04:26:03.299Z,14.73
2019-04-25T04:28:33.748Z,15.03
2019-04-25T04:31:03.727Z,14.83
2019-04-25T04:33:34.621Z,14.90
2019-04-25T04:36:04.162Z,14.93
2019-04-25T04:38:34.206Z,14.47
2019-04-25T04:41:04.075Z,13.87
2019-04-25T04:43:34.207Z,15.33
2019-04-25T04:46:04.006Z,14.53
2019-04-25T04:48:34.245Z,14.90
2019-04-25T04:51:03.903Z,17.40
2019-04-25T04:53:33.868Z,16.00
2019-04-25T04:56:04.672Z,16.63
2019-04-25T04:58:34.347Z,14.93
2019-04-25T05:01:03.867Z,16.03
2019-04-25T05:03:51.973Z,15.67
2019-04-25T05:06:41.280Z,15.30
2019-04-25T05:09:20.031Z,16.07
2019-04-25T05:11:49.521Z,16.67
2019-04-25T05:14:19.518Z,15.73
2019-04-25T05:16:49.607Z,16.23
2019-04-25T05:19:19.931Z,15.93
2019-04-25T05:21:49.459Z,16.70
2019-04-25T05:24:18.985Z,16.23
2019-04-25T05:26:48.468Z,16.73
2019-04-25T05:29:21.331Z,16.90
2019-04-25T05:31:51.414Z,16.60
2019-04-25T05:34:21.691Z,16.70
2019-04-25T05:36:51.351Z,17.77
2019-04-25T05:39:20.840Z,16.50
2019-04-25T05:42:16.271Z,16.57
2019-04-25T05:44:46.346Z,16.80
2019-04-25T05:47:16.272Z,18.23
2019-04-25T05:49:46.583Z,17.40
2019-04-25T05:52:16.114Z,18.73
2019-04-25T05:54:45.660Z,17.50
2019-04-25T05:57:16.535Z,18.50
2019-04-25T05:59:46.170Z,18.70
2019-04-25T06:02:15.655Z,17.90
2019-04-25T06:04:45.166Z,17.13
2019-04-25T06:07:14.662Z,19.03
2019-04-25T06:09:52.093Z,20.20
2019-04-25T06:12:45.031Z,18.90
2019-04-25T06:15:14.781Z,20.23
2019-04-25T06:18:03.882Z,18.87
2019-04-25T06:20:35.975Z,19.37
2019-04-25T06:23:18.882Z,19.80
2019-04-25T06:25:48.447Z,21.37
2019-04-25T06:28:20.333Z,19.20
2019-04-25T06:30:51.133Z,20.57
2019-04-25T06:33:21.325Z,20.10
2019-04-25T06:35:50.894Z,21.13
2019-04-25T06:38:21.382Z,21.17
2019-04-25T06:40:51.125Z,21.23
2019-04-25T06:43:20.585Z,20.97
2019-04-25T06:46:08.187Z,20.57
2019-04-25T06:48:56.614Z,21.70
2019-04-25T06:51:46.046Z,21.50
2019-04-25T06:54:15.145Z,21.67
2019-04-25T06:56:44.642Z,22.33
2019-04-25T06:59:14.130Z,22.83
2019-04-25T07:01:44.005Z,22.30
2019-04-25T07:04:14.099Z,20.47
2019-04-25T07:06:45.496Z,20.67
2019-04-25T07:09:15.179Z,20.33
2019-04-25T07:11:44.746Z,17.87
2019-04-25T07:14:14.335Z,18.83
2019-04-25T07:16:44.228Z,18.93
2019-04-25T07:19:20.326Z,23.17
2019-04-25T07:21:50.358Z,23.97
2019-04-25T07:24:20.274Z,23.07
2019-04-25T07:27:08.047Z,24.07
2019-04-25T07:29:58.708Z,22.73
2019-04-25T07:32:38.843Z,21.90
2019-04-25T07:35:09.367Z,22.90
2019-04-25T07:37:41.503Z,21.83
2019-04-25T07:40:10.908Z,20.33
2019-04-25T07:42:40.404Z,19.63
2019-04-25T07:45:11.155Z,18.00
2019-04-25T07:47:40.901Z,19.77
2019-04-25T07:50:10.762Z,19.33
2019-04-25T07:52:40.307Z,20.20
2019-04-25T07:55:09.985Z,19.20
2019-04-25T07:57:39.504Z,18.13
2019-04-25T08:00:14.634Z,18.50
2019-04-25T08:02:44.136Z,16.27
2019-04-25T08:05:16.892Z,13.33
2019-04-25T08:07:46.429Z,14.03
2019-04-25T08:10:17.241Z,13.30
2019-04-25T08:12:47.484Z,12.87
2019-04-25T08:15:30.206Z,12.47
2019-04-25T08:18:09.749Z,12.53
2019-04-25T08:20:40.077Z,12.70
2019-04-25T08:23:09.774Z,12.70
2019-04-25T08:25:40.564Z,12.20
2019-04-25T08:28:10.257Z,11.63
2019-04-25T08:30:39.757Z,11.70
2019-04-25T08:33:09.306Z,11.80
2019-04-25T08:35:38.931Z,11.30
2019-04-25T08:38:08.467Z,10.17
2019-04-25T08:40:38.997Z,13.07
2019-04-25T08:43:08.571Z,21.17
2019-04-25T08:45:39.776Z,11.73
2019-04-25T08:48:09.522Z,11.27
2019-04-25T08:50:54.232Z,10.70
2019-04-25T08:53:26.973Z,10.53
2019-04-25T08:56:07.240Z,10.67
2019-04-25T08:59:06.211Z,10.67
2019-04-25T09:01:58.087Z,10.07
2019-04-25T09:04:38.831Z,10.00
2019-04-25T09:07:08.688Z,9.60
2019-04-25T09:09:39.023Z,9.97
2019-04-25T09:12:08.648Z,10.73
2019-04-25T09:14:38.968Z,12.10
2019-04-25T09:17:08.601Z,10.10
2019-04-25T09:19:38.466Z,9.53
2019-04-25T09:22:08.058Z,9.30
2019-04-25T09:24:38.749Z,10.77
2019-04-25T09:27:08.541Z,9.13
2019-04-25T09:29:38.907Z,9.37
2019-04-25T09:32:08.477Z,9.37
2019-04-25T09:34:38.155Z,9.50
2019-04-25T09:37:07.589Z,9.97
2019-04-25T09:40:02.075Z,9.97
2019-04-25T09:42:31.674Z,8.90
2019-04-25T09:45:15.264Z,9.90
2019-04-25T09:47:46.036Z,9.27
2019-04-25T09:50:33.958Z,10.90
2019-04-25T09:53:04.534Z,12.23
2019-04-25T09:55:54.231Z,11.10
2019-04-25T09:58:48.334Z,9.40
2019-04-25T10:01:17.251Z,9.13
2019-04-25T10:03:47.811Z,9.73
2019-04-25T10:06:19.414Z,8.60
2019-04-25T10:08:48.947Z,8.73
2019-04-25T10:11:18.440Z,9.07
2019-04-25T10:14:14.609Z,8.27
2019-04-25T10:16:44.701Z,9.03
2019-04-25T10:19:15.620Z,8.27
2019-04-25T10:21:45.257Z,9.33
2019-04-25T10:24:14.735Z,8.30
2019-04-25T10:26:46.395Z,9.10
2019-04-25T10:29:15.921Z,8.47
2019-04-25T10:31:45.572Z,9.40
2019-04-25T10:34:15.131Z,9.97
2019-04-25T10:36:45.409Z,10.47
2019-04-25T10:39:15.052Z,8.73
2019-04-25T10:41:46.487Z,9.10
2019-04-25T10:44:16.125Z,9.37
2019-04-25T10:46:47.239Z,8.67
2019-04-25T10:49:16.922Z,8.93
2019-04-25T10:51:46.446Z,9.70
2019-04-25T10:54:15.928Z,9.03
2019-04-25T10:56:47.110Z,8.77
2019-04-25T10:59:16.776Z,9.17
2019-04-25T11:01:47.287Z,8.57
2019-04-25T11:04:31.800Z,9.63
2019-04-25T11:07:01.350Z,8.83
2019-04-25T11:09:30.938Z,9.83
2019-04-25T11:12:00.495Z,9.63
2019-04-25T11:14:31.822Z,10.03
2019-04-25T11:17:01.734Z,9.43
2019-04-25T11:19:31.336Z,10.53
2019-04-25T11:22:00.938Z,9.77
2019-04-25T11:24:30.547Z,11.20
2019-04-25T11:27:00.062Z,9.47
2019-04-25T11:29:29.694Z,9.20
2019-04-25T11:31:59.303Z,9.27
2019-04-25T11:34:28.923Z,9.93
2019-04-25T11:36:58.565Z,9.97
2019-04-25T11:39:56.918Z,9.70
2019-04-25T11:42:26.864Z,10.67
2019-04-25T11:44:56.700Z,10.70
2019-04-25T11:47:26.581Z,10.27
2019-04-25T11:49:56.431Z,10.27
2019-04-25T11:52:28.206Z,10.40
2019-04-25T11:54:57.575Z,10.03
2019-04-25T11:57:28.588Z,9.60
2019-04-25T12:00:00.515Z,9.77
2019-04-25T12:02:30.179Z,9.67
2019-04-25T12:05:01.707Z,9.57
2019-04-25T12:07:31.383Z,9.83
2019-04-25T12:10:00.956Z,10.00
2019-04-25T12:12:30.975Z,10.20
2019-04-25T12:15:00.540Z,10.43
2019-04-25T12:17:30.269Z,10.13
2019-04-25T12:20:00.206Z,10.87
2019-04-25T12:22:29.851Z,10.73
2019-04-25T12:24:59.502Z,11.93
2019-04-25T12:27:29.177Z,10.77
2019-04-25T12:29:59.515Z,11.03
2019-04-25T12:32:35.069Z,10.27
2019-04-25T12:35:04.074Z,10.67
2019-04-25T12:37:35.091Z,10.83
2019-04-25T12:40:06.492Z,10.23
2019-04-25T12:42:36.251Z,10.50
2019-04-25T12:45:24.171Z,11.57
2019-04-25T12:47:56.597Z,10.97
2019-04-25T12:50:25.154Z,10.87
2019-04-25T12:52:55.973Z,11.27
2019-04-25T12:55:25.694Z,9.83
2019-04-25T12:57:56.488Z,11.27
2019-04-25T13:00:27.013Z,10.13
2019-04-25T13:02:56.710Z,9.73
2019-04-25T13:05:26.188Z,10.80
2019-04-25T13:07:57.420Z,10.40
2019-04-25T13:10:26.905Z,10.80
2019-04-25T13:12:56.450Z,9.43
2019-04-25T13:15:27.062Z,11.50
2019-04-25T13:17:57.076Z,11.10
2019-04-25T13:20:26.562Z,9.50
2019-04-25T13:22:56.235Z,10.33
2019-04-25T13:25:25.922Z,8.97
2019-04-25T13:28:20.604Z,9.47
2019-04-25T13:31:12.350Z,11.03
2019-04-25T13:34:02.016Z,10.80
2019-04-25T13:36:34.706Z,9.50
2019-04-25T13:39:07.578Z,11.27
2019-04-25T13:41:37.096Z,9.20
2019-04-25T13:44:07.148Z,9.63
2019-04-25T13:46:36.809Z,11.90
2019-04-25T13:49:06.679Z,11.03
2019-04-25T13:51:36.205Z,10.27
2019-04-25T13:54:06.091Z,11.07
2019-04-25T13:56:40.311Z,11.13
2019-04-25T13:59:07.568Z,9.70
2019-04-25T14:01:37.089Z,10.83
2019-04-25T14:04:07.220Z,11.77
2019-04-25T14:06:36.995Z,9.67
2019-04-25T14:09:13.448Z,9.90
2019-04-25T14:11:44.126Z,9.20
2019-04-25T14:14:13.770Z,10.07
2019-04-25T14:17:17.541Z,9.43
2019-04-25T14:20:04.775Z,10.47
2019-04-25T14:22:34.284Z,9.03
2019-04-25T14:25:04.071Z,9.47
2019-04-25T14:27:34.088Z,10.13
2019-04-25T14:30:04.255Z,9.83
2019-04-25T14:32:35.097Z,10.23
2019-04-25T14:35:05.051Z,9.63
2019-04-25T14:37:39.479Z,10.83
2019-04-25T14:40:06.822Z,10.40
2019-04-25T14:42:36.430Z,9.80
2019-04-25T14:45:06.463Z,10.10
2019-04-25T14:47:36.001Z,10.23
2019-04-25T14:50:05.800Z,16.63
2019-04-25T14:52:35.669Z,15.30
2019-04-25T14:55:19.633Z,13.23
2019-04-25T14:57:49.154Z,11.57
2019-04-25T15:00:26.422Z,10.73
2019-04-25T15:02:55.912Z,11.23
2019-04-25T15:05:26.515Z,10.23
2019-04-25T15:07:56.033Z,11.07
2019-04-25T15:10:26.491Z,12.00
2019-04-25T15:12:56.328Z,10.17
2019-04-25T15:15:26.614Z,10.60
2019-04-25T15:17:56.404Z,10.37
2019-04-25T15:20:26.211Z,10.53
2019-04-25T15:22:57.054Z,9.60
2019-04-25T15:25:27.450Z,9.50
2019-04-25T15:27:56.962Z,11.90
2019-04-25T15:30:29.534Z,11.00
2019-04-25T15:32:59.146Z,12.10
2019-04-25T15:35:38.352Z,12.13
2019-04-25T15:38:13.209Z,19.17
2019-04-25T15:40:53.144Z,13.77
2019-04-25T15:43:29.281Z,14.60
2019-04-25T15:46:16.555Z,12.07
2019-04-25T15:48:46.122Z,11.57
2019-04-25T15:51:15.624Z,11.80
2019-04-25T15:53:45.126Z,12.20
2019-04-25T15:56:14.630Z,11.50
2019-04-25T15:58:44.112Z,13.60
2019-04-25T16:01:13.623Z,14.00
2019-04-25T16:03:43.136Z,13.53
2019-04-25T16:06:12.822Z,12.67
2019-04-25T16:08:42.406Z,10.87
2019-04-25T16:11:11.937Z,11.60
2019-04-25T16:13:41.422Z,12.03
2019-04-25T16:16:10.932Z,11.20
2019-04-25T16:18:41.180Z,10.60
2019-04-25T16:21:10.839Z,11.77
2019-04-25T16:23:40.358Z,11.37
2019-04-25T16:26:09.939Z,10.17
2019-04-25T16:28:39.805Z,10.07
2019-04-25T16:31:11.055Z,9.83
2019-04-25T16:33:40.781Z,9.63
2019-04-25T16:36:10.330Z,9.77
2019-04-25T16:38:39.822Z,9.50
2019-04-25T16:41:10.732Z,9.50
2019-04-25T16:43:43.715Z,10.60
2019-04-25T16:46:14.293Z,10.03
2019-04-25T16:48:43.819Z,16.20
2019-04-25T16:51:14.425Z,11.97
2019-04-25T16:53:43.928Z,10.03
2019-04-25T16:56:13.701Z,10.40
2019-04-25T16:58:43.292Z,9.53
2019-04-25T17:01:14.312Z,10.13
2019-04-25T17:03:44.659Z,10.43
2019-04-25T17:06:14.415Z,9.70
2019-04-25T17:08:44.034Z,10.20
2019-04-25T17:11:13.686Z,9.37
2019-04-25T17:13:49.382Z,9.70
2019-04-25T17:16:37.926Z,9.37
2019-04-25T17:19:10.951Z,10.20
2019-04-25T17:21:40.626Z,10.90
2019-04-25T17:24:10.150Z,8.80
2019-04-25T17:26:39.699Z,9.60
2019-04-25T17:29:12.790Z,9.07
2019-04-25T17:32:01.487Z,10.03
2019-04-25T17:34:48.696Z,9.27
2019-04-25T17:37:24.647Z,9.23
2019-04-25T17:40:00.606Z,9.87
2019-04-25T17:42:30.910Z,9.70
2019-04-25T17:45:00.603Z,9.70
2019-04-25T17:47:30.340Z,9.07
2019-04-25T17:49:59.820Z,9.67
2019-04-25T17:52:29.359Z,9.00
2019-04-25T17:54:58.875Z,10.03
2019-04-25T17:57:28.438Z,9.03
2019-04-25T17:59:57.948Z,9.60
2019-04-25T18:02:28.084Z,10.33
2019-04-25T18:04:57.569Z,9.07
2019-04-25T18:07:27.067Z,9.27
2019-04-25T18:09:56.743Z,8.90
2019-04-25T18:12:26.488Z,10.03
2019-04-25T18:14:57.704Z,9.80
2019-04-25T18:17:27.269Z,9.50
2019-04-25T18:20:05.416Z,10.00
2019-04-25T18:22:56.691Z,9.30
2019-04-25T18:25:51.104Z,8.97
2019-04-25T18:28:32.689Z,9.20
2019-04-25T18:31:02.965Z,9.77
2019-04-25T18:33:32.609Z,9.27
2019-04-25T18:36:18.481Z,11.57
2019-04-25T18:38:57.268Z,10.27
2019-04-25T18:41:35.393Z,9.63
2019-04-25T18:44:06.959Z,10.60
2019-04-25T18:46:40.515Z,10.53
2019-04-25T18:49:10.120Z,10.77
2019-04-25T18:51:40.642Z,10.60
2019-04-25T18:54:29.132Z,10.97
2019-04-25T18:57:06.111Z,10.70
2019-04-25T18:59:55.445Z,10.50
2019-04-25T19:02:49.680Z,9.27
2019-04-25T19:05:41.076Z,9.70
2019-04-25T19:08:10.674Z,9.93
2019-04-25T19:10:40.774Z,9.40
2019-04-25T19:13:12.883Z,10.57
2019-04-25T19:15:43.239Z,8.77
2019-04-25T19:18:12.844Z,9.40
2019-04-25T19:20:43.962Z,10.23
2019-04-25T19:23:13.643Z,9.87
2019-04-25T19:25:43.729Z,9.50
2019-04-25T19:28:13.288Z,10.20
2019-04-25T19:30:43.103Z,9.90
2019-04-25T19:33:12.716Z,9.77
2019-04-25T19:35:42.180Z,9.30
2019-04-25T19:38:11.706Z,9.47
2019-04-25T19:40:49.647Z,9.00
2019-04-25T19:43:29.258Z,8.70
2019-04-25T19:45:58.817Z,9.33
2019-04-25T19:48:28.510Z,11.63
2019-04-25T19:50:57.998Z,9.70
2019-04-25T19:53:27.493Z,9.03
2019-04-25T19:55:56.975Z,8.90
2019-04-25T19:58:26.448Z,9.30
2019-04-25T20:00:56.060Z,9.67
2019-04-25T20:03:49.249Z,8.83
2019-04-25T20:06:17.866Z,12.00
2019-04-25T20:08:52.923Z,8.87
2019-04-25T20:11:28.729Z,9.67
2019-04-25T20:13:58.220Z,9.83
2019-04-25T20:16:29.359Z,9.70
2019-04-25T20:18:58.898Z,8.57
2019-04-25T20:21:28.362Z,9.23
2019-04-25T20:23:57.841Z,8.27
2019-04-25T20:26:27.357Z,8.03
2019-04-25T20:28:56.845Z,8.70
2019-04-25T20:31:26.559Z,11.27
2019-04-25T20:34:05.269Z,8.57
2019-04-25T20:36:27.283Z,9.23
2019-04-25T20:38:56.812Z,8.83
2019-04-25T20:41:26.291Z,8.33
2019-04-25T20:43:55.775Z,8.60
2019-04-25T20:46:25.239Z,8.30
2019-04-25T20:48:54.786Z,11.50
2019-04-25T20:51:24.268Z,12.57
2019-04-25T20:53:53.760Z,13.37
2019-04-25T20:56:23.294Z,9.47
2019-04-25T20:58:53.514Z,11.30
2019-04-25T21:01:23.044Z,8.93
2019-04-25T21:03:52.509Z,9.10
2019-04-25T21:06:32.425Z,9.20
2019-04-25T21:09:02.284Z,9.40
2019-04-25T21:11:31.858Z,9.77
2019-04-25T21:14:19.354Z,10.80
2019-04-25T21:17:02.838Z,9.57
2019-04-25T21:19:34.614Z,9.70
2019-04-25T21:22:04.086Z,9.17
2019-04-25T21:24:33.579Z,9.67
2019-04-25T21:27:03.096Z,12.03
2019-04-25T21:29:32.571Z,13.13
2019-04-25T21:32:02.061Z,10.80
2019-04-25T21:34:31.587Z,11.23
2019-04-25T21:37:02.099Z,10.30
2019-04-25T21:39:55.102Z,10.63
2019-04-25T21:42:34.869Z,11.77
2019-04-25T21:45:05.110Z,11.00
2019-04-25T21:47:34.596Z,10.77
2019-04-25T21:50:04.819Z,12.63
2019-04-25T21:52:34.566Z,12.47
2019-04-25T21:55:04.486Z,13.37
2019-04-25T21:57:34.163Z,14.60
2019-04-25T22:00:08.879Z,14.20
2019-04-25T22:02:36.105Z,16.37
2019-04-25T22:05:06.447Z,17.07
2019-04-25T22:07:36.117Z,18.20
2019-04-25T22:10:07.411Z,20.80
2019-04-25T22:12:36.976Z,18.10
2019-04-25T22:15:09.531Z,16.63
2019-04-25T22:17:39.041Z,17.47
2019-04-25T22:20:09.118Z,15.27
2019-04-25T22:22:38.620Z,15.63
2019-04-25T22:25:08.107Z,18.43
2019-04-25T22:27:37.963Z,14.77
2019-04-25T22:30:09.553Z,16.50
2019-04-25T22:33:01.586Z,16.27
2019-04-25T22:35:49.136Z,17.33
2019-04-25T22:38:18.996Z,17.20
2019-04-25T22:40:48.498Z,16.60
2019-04-25T22:43:20.050Z,16.17
2019-04-25T22:45:49.846Z,16.50
2019-04-25T22:48:26.128Z,18.43
2019-04-25T22:50:55.922Z,19.40
2019-04-25T22:53:26.203Z,17.57
2019-04-25T22:55:56.525Z,17.50
2019-04-25T22:58:26.052Z,20.07
2019-04-25T23:00:55.579Z,16.80
2019-04-25T23:03:33.250Z,17.53
2019-04-25T23:06:02.822Z,18.27
2019-04-25T23:08:33.425Z,17.70
2019-04-25T23:11:02.919Z,16.70
2019-04-25T23:13:32.361Z,16.77
2019-04-25T23:16:02.531Z,16.67
2019-04-25T23:18:33.063Z,16.37
2019-04-25T23:21:02.535Z,17.10
2019-04-25T23:23:32.458Z,17.13
2019-04-25T23:26:29.886Z,17.87
2019-04-25T23:29:00.384Z,16.73
2019-04-25T23:31:31.284Z,16.33
2019-04-25T23:34:01.036Z,15.80
2019-04-25T23:36:30.513Z,17.73
2019-04-25T23:39:00.017Z,15.77
2019-04-25T23:41:29.918Z,17.07
2019-04-25T23:43:59.395Z,15.37
2019-04-25T23:46:29.247Z,17.30
2019-04-25T23:48:58.784Z,16.37
2019-04-25T23:51:28.264Z,15.27
2019-04-25T23:53:58.063Z,15.67
2019-04-25T23:56:27.576Z,17.07
2019-04-25T23:58:57.446Z,16.60
